Observation data for Fluvanna on 02/13/2017      Previous  Date  Next       Current Mesonet Observations  Soil Data  Daily Summary Page  Observations in Plain Language
KFVS 130600Z 03014G19KT 07/M06 A3031 RMK A01 T00681061  RH  040%=      5-min Rain = 0
KFVS 130605Z 03016G23KT 07/M06 A3031 RMK A01 T00681060  RH  040%=      5-min Rain = 0
KFVS 130610Z 04016G21KT 07/M06 A303 RMK A01 T00691060  RH  040%=      5-min Rain = 0
KFVS 130615Z 04014G21KT 07/M06 A303 RMK A01 T00691059  RH  040%=      5-min Rain = 0
KFVS 130620Z 03015G20KT 07/M06 A3031 RMK A01 T00691059  RH  040%=      5-min Rain = 0
KFVS 130625Z 03015G20KT 07/M06 A3031 RMK A01 T00701058  RH  040%=      5-min Rain = 0
KFVS 130630Z 03015KT 07/M06 A303 RMK A01 T00691057  RH  040%=      5-min Rain = 0
KFVS 130635Z 03016G21KT 07/M06 A3031 RMK A01 T00701057  RH  041%=      5-min Rain = 0
KFVS 130640Z 03015G20KT 07/M06 A3031 RMK A01 T00691056  RH  041%=      5-min Rain = 0
KFVS 130645Z 03015G20KT 07/M06 A3031 RMK A01 T00691056  RH  041%=      5-min Rain = 0
KFVS 130650Z 03015G23KT 07/M06 A303 RMK A01 T00691055  RH  041%=      5-min Rain = 0
KFVS 130655Z 03015G22KT 07/M06 A303 RMK A01 T00681055  RH  042%=      5-min Rain = 0
KFVS 130700Z 03016G21KT 07/M06 A303 RMK A01 T00671055  RH  042%=      5-min Rain = 0
KFVS 130705Z 03016KT 07/M05 A303 RMK A01 T00671054  RH  042%=      5-min Rain = 0
KFVS 130710Z 04015G22KT 07/M05 A303 RMK A01 T00671054  RH  042%=      5-min Rain = 0
KFVS 130715Z 03014KT 07/M05 A303 RMK A01 T00671053  RH  042%=      5-min Rain = 0
KFVS 130720Z 03015G20KT 07/M05 A3029 RMK A01 T00671053  RH  042%=      5-min Rain = 0
KFVS 130725Z 03016G23KT 07/M05 A3029 RMK A01 T00671053  RH  042%=      5-min Rain = 0
KFVS 130730Z 03017G23KT 07/M05 A3029 RMK A01 T00671053  RH  043%=      5-min Rain = 0
KFVS 130735Z 03017KT 07/M05 A3029 RMK A01 T00671052  RH  043%=      5-min Rain = 0
KFVS 130740Z 03015KT 07/M05 A3029 RMK A01 T00671052  RH  043%=      5-min Rain = 0
KFVS 130745Z 03016G21KT 07/M05 A3029 RMK A01 T00661052  RH  043%=      5-min Rain = 0
KFVS 130750Z 03013KT 07/M05 A3029 RMK A01 T00661051  RH  043%=      5-min Rain = 0
KFVS 130755Z 03014G19KT 07/M05 A3029 RMK A01 T00661051  RH  043%=      5-min Rain = 0
KFVS 130800Z 03013KT 07/M05 A3029 RMK A01 T00661051  RH  044%=      5-min Rain = 0
KFVS 130805Z 03015KT 07/M05 A3029 RMK A01 T00661051  RH  043%=      5-min Rain = 0
KFVS 130810Z 03013G20KT 07/M05 A3029 RMK A01 T00651051  RH  044%=      5-min Rain = 0
KFVS 130815Z 03016KT 07/M05 A3029 RMK A01 T00651052  RH  043%=      5-min Rain = 0
KFVS 130820Z 03014G19KT 07/M05 A3029 RMK A01 T00651052  RH  044%=      5-min Rain = 0
KFVS 130825Z 03014G20KT 07/M05 A3029 RMK A01 T00651052  RH  044%=      5-min Rain = 0
KFVS 130830Z 03014G19KT 06/M05 A3029 RMK A01 T00641052  RH  044%=      5-min Rain = 0
KFVS 130835Z 03016KT 06/M05 A3028 RMK A01 T00641053  RH  043%=      5-min Rain = 0
KFVS 130840Z 03015KT 06/M05 A3028 RMK A01 T00631054  RH  043%=      5-min Rain = 0
KFVS 130845Z 03014G19KT 06/M05 A3028 RMK A01 T00631054  RH  043%=      5-min Rain = 0
KFVS 130850Z 03014G20KT 06/M06 A3028 RMK A01 T00631055  RH  043%=      5-min Rain = 0
KFVS 130855Z 03015KT 06/M06 A3027 RMK A01 T00621056  RH  043%=      5-min Rain = 0
KFVS 130900Z 03015G20KT 06/M06 A3027 RMK A01 T00621057  RH  043%=      5-min Rain = 0
KFVS 130905Z 03013G18KT 06/M06 A3027 RMK A01 T00611057  RH  043%=      5-min Rain = 0
KFVS 130910Z 03014G19KT 06/M06 A3026 RMK A01 T00611057  RH  043%=      5-min Rain = 0
KFVS 130915Z 03013KT 06/M06 A3026 RMK A01 T00611058  RH  043%=      5-min Rain = 0
KFVS 130920Z 03013KT 06/M06 A3027 RMK A01 T00611059  RH  042%=      5-min Rain = 0
KFVS 130925Z 03013KT 06/M06 A3027 RMK A01 T00611059  RH  042%=      5-min Rain = 0
KFVS 130930Z 02013KT 06/M06 A3026 RMK A01 T00611060  RH  042%=      5-min Rain = 0
KFVS 130935Z 03014G19KT 06/M06 A3026 RMK A01 T00611060  RH  042%=      5-min Rain = 0
KFVS 130940Z 02014G19KT 06/M06 A3026 RMK A01 T00611061  RH  041%=      5-min Rain = 0
KFVS 130945Z 02014KT 06/M06 A3026 RMK A01 T00611062  RH  041%=      5-min Rain = 0
KFVS 130950Z 03013G18KT 06/M06 A3026 RMK A01 T00611062  RH  041%=      5-min Rain = 0
KFVS 130955Z 03016KT 06/M06 A3026 RMK A01 T00611064  RH  041%=      5-min Rain = 0
KFVS 131000Z 03014G19KT 06/M06 A3025 RMK A01 T00611064  RH  041%=      5-min Rain = 0
KFVS 131005Z 02016KT 06/M07 A3025 RMK A01 T00611066  RH  040%=      5-min Rain = 0
KFVS 131010Z 03017KT 06/M07 A3025 RMK A01 T00611066  RH  040%=      5-min Rain = 0
KFVS 131015Z 02016G21KT 06/M06 A3024 RMK A01 T00611063  RH  041%=      5-min Rain = 0
KFVS 131020Z 03016G21KT 06/M06 A3023 RMK A01 T00591063  RH  041%=      5-min Rain = 0
KFVS 131025Z 03017G23KT 06/M07 A3022 RMK A01 T00591067  RH  040%=      5-min Rain = 0
KFVS 131030Z 03010G16KT 06/M07 A3023 RMK A01 T00581067  RH  040%=      5-min Rain = 0
KFVS 131035Z 02013KT 06/M07 A3023 RMK A01 T00591067  RH  040%=      5-min Rain = 0
KFVS 131040Z 02015G20KT 06/M07 A3023 RMK A01 T00601068  RH  040%=      5-min Rain = 0
KFVS 131045Z 02013G18KT 06/M07 A3024 RMK A01 T00601069  RH  039%=      5-min Rain = 0
KFVS 131050Z 02010G15KT 06/M07 A3025 RMK A01 T00601067  RH  040%=      5-min Rain = 0
KFVS 131055Z 03011KT 06/M04 A3026 RMK A01 T00551040  RH  051%=      5-min Rain = 0.01
KFVS 131100Z 03011KT 05/M03 A3025 RMK A01 T00451026  RH  061%=      5-min Rain = 0.08
KFVS 131105Z 02011KT 03/M01 A3025 RMK A01 T00341014  RH  072%=      5-min Rain = 0.02
KFVS 131110Z 03013KT 03/M01 A3023 RMK A01 T00301011  RH  075%=      5-min Rain = 0.01
KFVS 131115Z 02014KT 03/M01 A3022 RMK A01 T00291011  RH  076%=      5-min Rain = 0
KFVS 131120Z 02014KT 03/M01 A3021 RMK A01 T00301011  RH  075%=      5-min Rain = 0
KFVS 131125Z 02012KT 03/M01 A3021 RMK A01 T00311010  RH  075%=      5-min Rain = 0
KFVS 131130Z 02009KT 03/M01 A3022 RMK A01 T00311005  RH  078%=      5-min Rain = 0
KFVS 131135Z 02010KT 03/M01 A3022 RMK A01 T00321007  RH  077%=      5-min Rain = 0
KFVS 131140Z 02010KT 03/M01 A3022 RMK A01 T00341009  RH  075%=      5-min Rain = 0
KFVS 131145Z 02010KT 04/M01 A3022 RMK A01 T00351011  RH  073%=      5-min Rain = 0
KFVS 131150Z 01009KT 04/M01 A3022 RMK A01 T00351009  RH  074%=      5-min Rain = 0
KFVS 131155Z 01009KT 04/M01 A3022 RMK A01 T00351008  RH  074%=      5-min Rain = 0
KFVS 131200Z 01009KT 03/M01 A3022 RMK A01 T00341007  RH  075%=      5-min Rain = 0
KFVS 131205Z 01010KT 03/M01 A3022 RMK A01 T00341006  RH  076%=      5-min Rain = 0
KFVS 131210Z 01010KT 03/M01 A3022 RMK A01 T00331006  RH  077%=      5-min Rain = 0.01
KFVS 131215Z 36009KT 03/M00 A3022 RMK A01 T00321003  RH  079%=      5-min Rain = 0
KFVS 131220Z 34007KT 03/M00 A3023 RMK A01 T00321001  RH  080%=      5-min Rain = 0
KFVS 131225Z 35009KT 03/00 A3023 RMK A01 T00300000  RH  081%=      5-min Rain = 0
KFVS 131230Z 34008KT 03/00 A3023 RMK A01 T00300001  RH  082%=      5-min Rain = 0
KFVS 131235Z 32008KT 03/M00 A3024 RMK A01 T00291001  RH  081%=      5-min Rain = 0
KFVS 131240Z 33011KT 03/M01 A3025 RMK A01 T00291007  RH  078%=      5-min Rain = 0
KFVS 131245Z 35012KT 03/M01 A3024 RMK A01 T00301012  RH  075%=      5-min Rain = 0
KFVS 131250Z 35012KT 03/M01 A3024 RMK A01 T00301012  RH  075%=      5-min Rain = 0
KFVS 131255Z 35012KT 03/M01 A3023 RMK A01 T00301011  RH  076%=      5-min Rain = 0
KFVS 131300Z 36013KT 03/M01 A3023 RMK A01 T00301010  RH  076%=      5-min Rain = 0
KFVS 131305Z 35012KT 03/M01 A3023 RMK A01 T00291010  RH  076%=      5-min Rain = 0
KFVS 131310Z 36013KT 03/M01 A3023 RMK A01 T00291011  RH  076%=      5-min Rain = 0.01
KFVS 131315Z 36013KT 03/M01 A3023 RMK A01 T00291010  RH  076%=      5-min Rain = 0
KFVS 131320Z 36012KT 03/M01 A3023 RMK A01 T00291011  RH  076%=      5-min Rain = 0
KFVS 131325Z 36011KT 03/M01 A3023 RMK A01 T00291007  RH  078%=      5-min Rain = 0
KFVS 131330Z 36010G15KT 03/M00 A3023 RMK A01 T00281004  RH  081%=      5-min Rain = 0
KFVS 131335Z 01013G18KT 03/M00 A3022 RMK A01 T00271003  RH  081%=      5-min Rain = 0
KFVS 131340Z 36012KT 03/M00 A3023 RMK A01 T00261002  RH  083%=      5-min Rain = 0.01
KFVS 131345Z 35013KT 03/M00 A3023 RMK A01 T00261004  RH  082%=      5-min Rain = 0
KFVS 131350Z 36012KT 03/M00 A3023 RMK A01 T00251004  RH  082%=      5-min Rain = 0
KFVS 131355Z 35013KT 03/M01 A3024 RMK A01 T00251006  RH  081%=      5-min Rain = 0
KFVS 131400Z 35012KT 03/M00 A3024 RMK A01 T00261004  RH  082%=      5-min Rain = 0
KFVS 131405Z 01011KT 03/M00 A3024 RMK A01 T00251004  RH  082%=      5-min Rain = 0
KFVS 131410Z 02012KT 02/M00 A3022 RMK A01 T00241004  RH  082%=      5-min Rain = 0
KFVS 131415Z 02012KT 02/M01 A3022 RMK A01 T00241006  RH  081%=      5-min Rain = 0
KFVS 131420Z 01012KT 02/M01 A3022 RMK A01 T00241006  RH  082%=      5-min Rain = 0
KFVS 131425Z 01014KT 02/M00 A3021 RMK A01 T00241004  RH  082%=      5-min Rain = 0
KFVS 131430Z 01012KT 03/M01 A3022 RMK A01 T00251005  RH  082%=      5-min Rain = 0
KFVS 131435Z 36013KT 03/M00 A3023 RMK A01 T00251003  RH  082%=      5-min Rain = 0
KFVS 131440Z 00013G18KT 03/M01 A3022 RMK A01 T00251005  RH  082%=      5-min Rain = 0
KFVS 131445Z 01012KT 03/M01 A3022 RMK A01 T00251006  RH  081%=      5-min Rain = 0
KFVS 131450Z 35013KT 02/M00 A3023 RMK A01 T00241004  RH  082%=      5-min Rain = 0
KFVS 131455Z 35014KT 02/M00 A3023 RMK A01 T00241004  RH  083%=      5-min Rain = 0
KFVS 131500Z 36013KT 02/M00 A3022 RMK A01 T00231002  RH  085%=      5-min Rain = 0.01
KFVS 131505Z 35011KT 02/00 A3023 RMK A01 T00220002  RH  087%=      5-min Rain = 0
KFVS 131510Z 36013G18KT 02/00 A3022 RMK A01 T00220004  RH  089%=      5-min Rain = 0.01
KFVS 131515Z 01014KT 02/01 A302 RMK A01 T00210006  RH  091%=      5-min Rain = 0
KFVS 131520Z 35015KT 02/01 A3021 RMK A01 T00210007  RH  092%=      5-min Rain = 0
KFVS 131525Z 35014KT 02/01 A3022 RMK A01 T00200006  RH  092%=      5-min Rain = 0
KFVS 131530Z 34013KT 02/01 A3022 RMK A01 T00200006  RH  092%=      5-min Rain = 0
KFVS 131535Z 35014KT 02/01 A3022 RMK A01 T00190006  RH  092%=      5-min Rain = 0
KFVS 131540Z 35014KT 02/01 A3021 RMK A01 T00190006  RH  092%=      5-min Rain = 0
KFVS 131545Z 00015KT 02/01 A302 RMK A01 T00190005  RH  092%=      5-min Rain = 0
KFVS 131550Z 36015KT 02/01 A3019 RMK A01 T00180006  RH  092%=      5-min Rain = 0
KFVS 131555Z 00012KT 02/01 A302 RMK A01 T00180007  RH  093%=      5-min Rain = 0
KFVS 131600Z 00011KT 02/01 A3021 RMK A01 T00180006  RH  092%=      5-min Rain = 0
KFVS 131605Z 33011KT 02/01 A3023 RMK A01 T00190005  RH  092%=      5-min Rain = 0
KFVS 131610Z 31011G16KT 02/00 A3025 RMK A01 T00190004  RH  091%=      5-min Rain = 0
KFVS 131615Z 34010KT 02/00 A3023 RMK A01 T00190001  RH  089%=      5-min Rain = 0.01
KFVS 131620Z 35010KT 02/00 A3022 RMK A01 T00180003  RH  091%=      5-min Rain = 0.01
KFVS 131625Z 33011KT 02/00 A3023 RMK A01 T00170003  RH  091%=      5-min Rain = 0.01
KFVS 131630Z 33010KT 02/00 A3023 RMK A01 T00160002  RH  091%=      5-min Rain = 0.02
KFVS 131635Z 34012KT 02/00 A3023 RMK A01 T00160001  RH  091%=      5-min Rain = 0.03
KFVS 131640Z 33012G17KT 02/00 A3023 RMK A01 T00150002  RH  092%=      5-min Rain = 0.04
KFVS 131645Z 32013KT 02/00 A3024 RMK A01 T00150002  RH  092%=      5-min Rain = 0.05
KFVS 131650Z 33013KT 02/00 A3023 RMK A01 T00150004  RH  093%=      5-min Rain = 0.01
KFVS 131655Z 35013KT 01/00 A3021 RMK A01 T00140004  RH  094%=      5-min Rain = 0.01
KFVS 131700Z 33011KT 02/00 A3023 RMK A01 T00150004  RH  093%=      5-min Rain = 0
KFVS 131705Z 32010KT 02/00 A3025 RMK A01 T00150003  RH  093%=      5-min Rain = 0
KFVS 131710Z 33010KT 02/01 A3024 RMK A01 T00170005  RH  093%=      5-min Rain = 0
KFVS 131715Z 36011KT 02/01 A3022 RMK A01 T00160005  RH  093%=      5-min Rain = 0
KFVS 131720Z 35010KT 02/01 A3022 RMK A01 T00160005  RH  094%=      5-min Rain = 0
KFVS 131725Z 36010KT 02/01 A3022 RMK A01 T00160006  RH  094%=      5-min Rain = 0.01
KFVS 131730Z 32009KT 02/01 A3024 RMK A01 T00170007  RH  094%=      5-min Rain = 0
KFVS 131735Z 00010KT 02/01 A3022 RMK A01 T00170007  RH  094%=      5-min Rain = 0.01
KFVS 131740Z 00010KT 02/01 A3021 RMK A01 T00160006  RH  094%=      5-min Rain = 0.01
KFVS 131745Z 36010KT 02/01 A3022 RMK A01 T00160007  RH  094%=      5-min Rain = 0.02
KFVS 131750Z 00010KT 02/01 A302 RMK A01 T00160007  RH  095%=      5-min Rain = 0.01
KFVS 131755Z 34008KT 02/01 A3021 RMK A01 T00170008  RH  095%=      5-min Rain = 0
KFVS 131800Z 02010KT 02/01 A3019 RMK A01 T00170009  RH  095%=      5-min Rain = 0
KFVS 131805Z 04008KT 02/01 A3018 RMK A01 T00170010  RH  096%=      5-min Rain = 0
KFVS 131810Z 35005KT 02/01 A3021 RMK A01 T00180011  RH  096%=      5-min Rain = 0.01
KFVS 131815Z 02006KT 02/01 A302 RMK A01 T00180012  RH  097%=      5-min Rain = 0
KFVS 131820Z 01006KT 02/01 A302 RMK A01 T00180012  RH  097%=      5-min Rain = 0
KFVS 131825Z 01004KT 02/01 A302 RMK A01 T00180011  RH  096%=      5-min Rain = 0.01
KFVS 131830Z 04008KT 02/01 A3018 RMK A01 T00180012  RH  097%=      5-min Rain = 0.03
KFVS 131835Z 05007KT 02/01 A3017 RMK A01 T00180013  RH  097%=      5-min Rain = 0.01
KFVS 131840Z 02009KT 02/01 A3016 RMK A01 T00180013  RH  098%=      5-min Rain = 0.05
KFVS 131845Z 03007KT 02/01 A3016 RMK A01 T00170013  RH  098%=      5-min Rain = 0.02
KFVS 131850Z 03007KT 02/01 A3017 RMK A01 T00170014  RH  099%=      5-min Rain = 0.09
KFVS 131855Z 04008KT 02/01 A3015 RMK A01 T00170014  RH  099%=      5-min Rain = 0.02
KFVS 131900Z 01008KT 02/02 A3014 RMK A01 T00170015  RH  100%=      5-min Rain = 0.05
KFVS 131905Z 02011KT 02/02 A3013 RMK A01 T00170015  RH  100%=      5-min Rain = 0.08
KFVS 131910Z 02008KT 02/02 A3013 RMK A01 T00170015  RH  100%=      5-min Rain = 0
KFVS 131915Z 01009KT 02/02 A3014 RMK A01 T00170015  RH  100%=      5-min Rain = 0.01
KFVS 131920Z 02009KT 02/02 A3013 RMK A01 T00170016  RH  100%=      5-min Rain = 0
KFVS 131925Z 00007KT 02/02 A3013 RMK A01 T00190017  RH  100%=      5-min Rain = 0
KFVS 131930Z 02008KT 02/02 A3012 RMK A01 T00200018  RH  100%=      5-min Rain = 0.01
KFVS 131935Z 03010KT 02/02 A3011 RMK A01 T00190017  RH  100%=      5-min Rain = 0
KFVS 131940Z 02009KT 02/02 A3011 RMK A01 T00200018  RH  100%=      5-min Rain = 0
KFVS 131945Z 02009KT 02/02 A3012 RMK A01 T00200018  RH  100%=      5-min Rain = 0
KFVS 131950Z 01008KT 02/02 A3011 RMK A01 T00200019  RH  100%=      5-min Rain = 0
KFVS 131955Z 00008KT 02/02 A3012 RMK A01 T00200019  RH  100%=      5-min Rain = 0
KFVS 132000Z 01008KT 02/02 A3011 RMK A01 T00200018  RH  100%=      5-min Rain = 0.01
KFVS 132005Z 01008KT 02/02 A3011 RMK A01 T00210020  RH  100%=      5-min Rain = 0.01
KFVS 132010Z 01008KT 02/02 A3011 RMK A01 T00200019  RH  100%=      5-min Rain = 0.02
KFVS 132015Z 36009KT 02/02 A301 RMK A01 T00210020  RH  100%=      5-min Rain = 0.01
KFVS 132020Z 35008KT 02/02 A301 RMK A01 T00220020  RH  100%=      5-min Rain = 0
KFVS 132025Z 36007KT 02/02 A301 RMK A01 T00220020  RH  100%=      5-min Rain = 0.02
KFVS 132030Z 36008KT 02/02 A301 RMK A01 T00210020  RH  100%=      5-min Rain = 0
KFVS 132035Z 36008KT 02/02 A3009 RMK A01 T00200019  RH  100%=      5-min Rain = 0
KFVS 132040Z 00007KT 02/02 A3009 RMK A01 T00200019  RH  100%=      5-min Rain = 0.01
KFVS 132045Z 01007KT 02/02 A3009 RMK A01 T00210020  RH  100%=      5-min Rain = 0
KFVS 132050Z 01007KT 02/02 A3009 RMK A01 T00200019  RH  100%=      5-min Rain = 0
KFVS 132055Z 02006KT 02/02 A3009 RMK A01 T00200019  RH  100%=      5-min Rain = 0
KFVS 132100Z 03006KT 02/02 A3009 RMK A01 T00210019  RH  100%=      5-min Rain = 0
KFVS 132105Z 03007KT 02/02 A3009 RMK A01 T00210019  RH  100%=      5-min Rain = 0
KFVS 132110Z 03008KT 02/02 A3008 RMK A01 T00210019  RH  100%=      5-min Rain = 0
KFVS 132115Z 04008KT 02/02 A3008 RMK A01 T00200019  RH  100%=      5-min Rain = 0
KFVS 132120Z 04007KT 02/02 A3008 RMK A01 T00210019  RH  100%=      5-min Rain = 0
KFVS 132125Z 04006KT 02/02 A3008 RMK A01 T00220021  RH  100%=      5-min Rain = 0
KFVS 132130Z 04007KT 02/02 A3008 RMK A01 T00230021  RH  100%=      5-min Rain = 0
KFVS 132135Z 04006KT 02/02 A3008 RMK A01 T00220020  RH  100%=      5-min Rain = 0
KFVS 132140Z 04006KT 02/02 A3008 RMK A01 T00220021  RH  100%=      5-min Rain = 0
KFVS 132145Z 04006KT 02/02 A3007 RMK A01 T00220021  RH  100%=      5-min Rain = 0
KFVS 132150Z 05006KT 02/02 A3007 RMK A01 T00220020  RH  100%=      5-min Rain = 0
KFVS 132155Z 03007KT 02/02 A3007 RMK A01 T00220020  RH  100%=      5-min Rain = 0.01
KFVS 132200Z 03008KT 02/02 A3006 RMK A01 T00220020  RH  100%=      5-min Rain = 0.03
KFVS 132205Z 02006KT 02/02 A3007 RMK A01 T00220021  RH  100%=      5-min Rain = 0
KFVS 132210Z 01007KT 02/02 A3006 RMK A01 T00220021  RH  100%=      5-min Rain = 0
KFVS 132215Z 02007KT 02/02 A3006 RMK A01 T00220020  RH  100%=      5-min Rain = 0
KFVS 132220Z 01006KT 02/02 A3007 RMK A01 T00230021  RH  100%=      5-min Rain = 0
KFVS 132225Z 35008KT 02/02 A3007 RMK A01 T00220021  RH  100%=      5-min Rain = 0
KFVS 132230Z 36008KT 02/02 A3006 RMK A01 T00220021  RH  100%=      5-min Rain = 0.01
KFVS 132235Z 01007KT 02/02 A3006 RMK A01 T00220020  RH  100%=      5-min Rain = 0
KFVS 132240Z 01007KT 02/02 A3006 RMK A01 T00220020  RH  100%=      5-min Rain = 0
KFVS 132245Z 02007KT 02/02 A3006 RMK A01 T00220020  RH  100%=      5-min Rain = 0
KFVS 132250Z 02008KT 02/02 A3006 RMK A01 T00220020  RH  100%=      5-min Rain = 0
KFVS 132255Z 02008KT 02/02 A3005 RMK A01 T00210020  RH  100%=      5-min Rain = 0
KFVS 132300Z 02008KT 02/02 A3005 RMK A01 T00210019  RH  100%=      5-min Rain = 0
KFVS 132305Z 03008KT 02/02 A3005 RMK A01 T00210019  RH  100%=      5-min Rain = 0
KFVS 132310Z 03009KT 02/02 A3006 RMK A01 T00210019  RH  100%=      5-min Rain = 0
KFVS 132315Z 03008KT 02/02 A3006 RMK A01 T00210019  RH  100%=      5-min Rain = 0
KFVS 132320Z 03009KT 02/02 A3006 RMK A01 T00210019  RH  100%=      5-min Rain = 0.01
KFVS 132325Z 02008KT 02/02 A3006 RMK A01 T00200019  RH  100%=      5-min Rain = 0
KFVS 132330Z 35006KT 02/02 A3007 RMK A01 T00210020  RH  100%=      5-min Rain = 0
KFVS 132335Z 32008KT 02/02 A3009 RMK A01 T00230021  RH  100%=      5-min Rain = 0
KFVS 132340Z 32009KT 02/02 A3009 RMK A01 T00230022  RH  100%=      5-min Rain = 0.01
KFVS 132345Z 32008KT 02/02 A3009 RMK A01 T00230021  RH  100%=      5-min Rain = 0.01
KFVS 132350Z 32008KT 02/02 A3009 RMK A01 T00230022  RH  100%=      5-min Rain = 0
KFVS 132355Z 32009KT 02/02 A301 RMK A01 T00230022  RH  100%=      5-min Rain = 0.01
KFVS 140000Z 32010KT 02/02 A301 RMK A01 T00230021  RH  100%=      5-min Rain = 0
KFVS 140005Z 33011KT 02/02 A301 RMK A01 T00220021  RH  100%=      5-min Rain = 0
KFVS 140010Z 33010KT 02/02 A3009 RMK A01 T00220020  RH  100%=      5-min Rain = 0
KFVS 140015Z 35008KT 02/02 A3009 RMK A01 T00220020  RH  100%=      5-min Rain = 0
KFVS 140020Z 01007KT 02/02 A3008 RMK A01 T00210020  RH  100%=      5-min Rain = 0
KFVS 140025Z 35008KT 02/02 A3009 RMK A01 T00220020  RH  100%=      5-min Rain = 0
KFVS 140030Z 34009KT 02/02 A301 RMK A01 T00220021  RH  100%=      5-min Rain = 0.01
KFVS 140035Z 35011KT 02/02 A3009 RMK A01 T00220020  RH  100%=      5-min Rain = 0
KFVS 140040Z 35009KT 02/02 A3009 RMK A01 T00220021  RH  100%=      5-min Rain = 0
KFVS 140045Z 36010KT 02/02 A3009 RMK A01 T00200019  RH  100%=      5-min Rain = 0
KFVS 140050Z 01008KT 02/02 A3009 RMK A01 T00190017  RH  100%=      5-min Rain = 0
KFVS 140055Z 01008KT 02/02 A3009 RMK A01 T00190017  RH  100%=      5-min Rain = 0.01
KFVS 140100Z 01008KT 02/02 A3008 RMK A01 T00190018  RH  100%=      5-min Rain = 0
KFVS 140105Z 01008KT 02/02 A3008 RMK A01 T00200018  RH  100%=      5-min Rain = 0
KFVS 140110Z 00010KT 02/02 A3007 RMK A01 T00200018  RH  100%=      5-min Rain = 0
KFVS 140115Z 01010KT 02/02 A3007 RMK A01 T00210019  RH  100%=      5-min Rain = 0
KFVS 140120Z 02008KT 02/02 A3007 RMK A01 T00210019  RH  100%=      5-min Rain = 0
KFVS 140125Z 02011KT 02/02 A3006 RMK A01 T00210020  RH  100%=      5-min Rain = 0
KFVS 140130Z 03011KT 02/02 A3006 RMK A01 T00210019  RH  100%=      5-min Rain = 0
KFVS 140135Z 02011KT 02/02 A3005 RMK A01 T00210019  RH  100%=      5-min Rain = 0
KFVS 140140Z 01009KT 02/02 A3006 RMK A01 T00210020  RH  100%=      5-min Rain = 0
KFVS 140145Z 02008KT 02/02 A3006 RMK A01 T00220020  RH  100%=      5-min Rain = 0
KFVS 140150Z 02011KT 02/02 A3005 RMK A01 T00210020  RH  100%=      5-min Rain = 0
KFVS 140155Z 03010KT 02/02 A3005 RMK A01 T00210019  RH  100%=      5-min Rain = 0
KFVS 140200Z 04007KT 02/02 A3006 RMK A01 T00210019  RH  100%=      5-min Rain = 0
KFVS 140205Z 01007KT 02/02 A3007 RMK A01 T00210020  RH  100%=      5-min Rain = 0
KFVS 140210Z 01009KT 02/02 A3006 RMK A01 T00220020  RH  100%=      5-min Rain = 0.03
KFVS 140215Z 02011KT 02/02 A3005 RMK A01 T00210020  RH  100%=      5-min Rain = 0.03
KFVS 140220Z 02012KT 02/02 A3004 RMK A01 T00210020  RH  100%=      5-min Rain = 0.01
KFVS 140225Z 02010G16KT 02/02 A3004 RMK A01 T00210019  RH  100%=      5-min Rain = 0.01
KFVS 140230Z 02010KT 02/02 A3004 RMK A01 T00210019  RH  100%=      5-min Rain = 0
KFVS 140235Z 01011G16KT 02/02 A3003 RMK A01 T00210019  RH  100%=      5-min Rain = 0
KFVS 140240Z 00009KT 02/02 A3004 RMK A01 T00210020  RH  100%=      5-min Rain = 0
KFVS 140245Z 00009KT 02/02 A3004 RMK A01 T00220020  RH  100%=      5-min Rain = 0
KFVS 140250Z 02005G11KT 02/02 A3006 RMK A01 T00220020  RH  100%=      5-min Rain = 0
KFVS 140255Z 06005G10KT 02/02 A3006 RMK A01 T00220020  RH  100%=      5-min Rain = 0
KFVS 140300Z 04011KT 02/02 A3003 RMK A01 T00220020  RH  100%=      5-min Rain = 0.02
KFVS 140305Z 02014G19KT 02/02 A3001 RMK A01 T00220020  RH  100%=      5-min Rain = 0
KFVS 140310Z 01014KT 02/02 A3001 RMK A01 T00220020  RH  100%=      5-min Rain = 0.01
KFVS 140315Z 02012G17KT 02/02 A3002 RMK A01 T00220020  RH  100%=      5-min Rain = 0
KFVS 140320Z 04010KT 02/02 A3002 RMK A01 T00220020  RH  100%=      5-min Rain = 0
KFVS 140325Z 03009KT 02/02 A3002 RMK A01 T00220020  RH  100%=      5-min Rain = 0
KFVS 140330Z 02012KT 02/02 A3001 RMK A01 T00220020  RH  100%=      5-min Rain = 0
KFVS 140335Z 01010KT 02/02 A3001 RMK A01 T00220020  RH  100%=      5-min Rain = 0
KFVS 140340Z 04010KT 02/02 A3002 RMK A01 T00220020  RH  100%=      5-min Rain = 0
KFVS 140345Z 05011G17KT 02/02 A3002 RMK A01 T00210020  RH  100%=      5-min Rain = 0
KFVS 140350Z 04009KT 02/02 A3003 RMK A01 T00210020  RH  100%=      5-min Rain = 0
KFVS 140355Z 06007KT 02/02 A3004 RMK A01 T00220020  RH  100%=      5-min Rain = 0
KFVS 140400Z 06008KT 02/02 A3005 RMK A01 T00220020  RH  100%=      5-min Rain = 0
KFVS 140405Z 05011G16KT 02/02 A3002 RMK A01 T00220020  RH  100%=      5-min Rain = 0
KFVS 140410Z 04013KT 02/02 A30 RMK A01 T00220020  RH  100%=      5-min Rain = 0
KFVS 140415Z 03010KT 02/02 A3001 RMK A01 T00220020  RH  100%=      5-min Rain = 0
KFVS 140420Z 03013KT 02/02 A3001 RMK A01 T00220020  RH  100%=      5-min Rain = 0
KFVS 140425Z 03012KT 02/02 A30 RMK A01 T00220020  RH  100%=      5-min Rain = 0
KFVS 140430Z 02013KT 02/02 A30 RMK A01 T00210020  RH  100%=      5-min Rain = 0
KFVS 140435Z 02014G19KT 02/02 A30 RMK A01 T00220020  RH  100%=      5-min Rain = 0
KFVS 140440Z 01014KT 02/02 A3001 RMK A01 T00220019  RH  100%=      5-min Rain = 0
KFVS 140445Z 35013KT 02/02 A3001 RMK A01 T00220020  RH  100%=      5-min Rain = 0
KFVS 140450Z 35012KT 02/02 A3001 RMK A01 T00230021  RH  100%=      5-min Rain = 0
KFVS 140455Z 35013KT 02/02 A3002 RMK A01 T00230021  RH  100%=      5-min Rain = 0
KFVS 140500Z 35011KT 02/02 A3003 RMK A01 T00240022  RH  100%=      5-min Rain = 0
KFVS 140505Z 35010G15KT 02/02 A3003 RMK A01 T00240022  RH  100%=      5-min Rain = 0
KFVS 140510Z 00013KT 02/02 A3002 RMK A01 T00230022  RH  100%=      5-min Rain = 0
KFVS 140515Z 36014KT 02/02 A3002 RMK A01 T00230022  RH  100%=      5-min Rain = 0
KFVS 140520Z 35013KT 02/02 A3003 RMK A01 T00240022  RH  100%=      5-min Rain = 0
KFVS 140525Z 34013KT 02/02 A3003 RMK A01 T00240022  RH  100%=      5-min Rain = 0
KFVS 140530Z 36011G16KT 02/02 A3003 RMK A01 T00240022  RH  100%=      5-min Rain = 0
KFVS 140535Z 01011G16KT 02/02 A3002 RMK A01 T00240022  RH  100%=      5-min Rain = 0
KFVS 140540Z 00013KT 02/02 A3001 RMK A01 T00240022  RH  100%=      5-min Rain = 0
KFVS 140545Z 34012KT 02/02 A3003 RMK A01 T00240023  RH  100%=      5-min Rain = 0
KFVS 140550Z 33012KT 03/02 A3004 RMK A01 T00250023  RH  100%=      5-min Rain = 0
KFVS 140555Z 35011KT 03/02 A3003 RMK A01 T00250023  RH  100%=      5-min Rain = 0

Page generated in 1.0193 seconds.